Time;durP1;ratioP1;P1;durP2;ratioP2;P2;SDS_P1;SDS_P2;PMS_P1;PMS_P2;Temp;Humidity;BMP_temperature;BMP_pressure;BME280_temperature;BME280_humidity;BME280_pressure;Samples;Min_cycle;Max_cycle;Signal;HPM_P1;HPM_P2
2021/04/19 00:01:09;;;;;;;5.10;4.40;;;;;;;7.06;80.15;99931.38;1770711;81;21162;-65
2021/04/19 00:03:37;;;;;;;5.62;4.60;;;;;;;7.06;80.25;99932.70;1772915;79;20967;-61
2021/04/19 00:06:06;;;;;;;5.92;4.90;;;;;;;7.08;80.39;99931.47;1770959;79;21153;-61
2021/04/19 00:08:33;;;;;;;5.30;4.50;;;;;;;7.09;80.46;99935.78;1792326;79;21134;-67
2021/04/19 00:11:03;;;;;;;5.25;4.78;;;;;;;7.09;80.55;99932.28;1780586;79;21007;-65
2021/04/19 00:13:31;;;;;;;8.35;5.37;;;;;;;7.08;80.60;99927.97;1773709;79;21642;-61
2021/04/19 00:16:01;;;;;;;4.22;3.83;;;;;;;7.06;80.69;99932.70;1778144;79;21012;-66
2021/04/19 00:18:28;;;;;;;4.40;4.00;;;;;;;7.04;80.76;99928.12;1773850;79;21173;-65
2021/04/19 00:20:56;;;;;;;5.95;5.30;;;;;;;6.99;80.85;99926.11;1803423;79;21086;-63
2021/04/19 00:23:24;;;;;;;5.87;4.65;;;;;;;6.93;81.08;99926.47;1805574;79;21199;-66
2021/04/19 00:25:53;;;;;;;5.00;4.50;;;;;;;6.87;81.29;99920.66;1796163;79;21169;-69
2021/04/19 00:28:21;;;;;;;4.45;4.05;;;;;;;6.85;81.54;99923.27;1774996;80;21027;-67
2021/04/19 00:30:50;;;;;;;6.70;3.83;;;;;;;6.84;81.78;99919.77;1773794;80;21149;-64
2021/04/19 00:33:17;;;;;;;5.15;4.08;;;;;;;6.85;81.96;99916.58;1775743;79;21137;-61
2021/04/19 00:35:45;;;;;;;4.70;4.20;;;;;;;6.85;82.03;99917.41;1786421;79;21381;-64
2021/04/19 00:38:13;;;;;;;6.22;4.33;;;;;;;6.83;81.99;99910.11;1804503;79;21978;-63
2021/04/19 00:40:41;;;;;;;5.20;4.70;;;;;;;6.82;82.08;99917.82;1794847;79;21122;-61
2021/04/19 00:43:09;;;;;;;4.50;4.05;;;;;;;6.79;81.97;99914.27;1774501;80;21014;-64
2021/04/19 00:45:36;;;;;;;4.37;3.98;;;;;;;6.72;82.04;99907.32;1793613;79;21603;-63
2021/04/19 00:48:07;;;;;;;5.17;4.20;;;;;;;6.70;82.25;99910.23;1790982;80;21461;-64
2021/04/19 00:50:35;;;;;;;4.47;4.08;;;;;;;6.70;82.33;99906.23;1689259;84;21248;-61
2021/04/19 00:53:04;;;;;;;4.35;3.95;;;;;;;6.73;82.43;99907.63;1717505;83;21204;-61
2021/04/19 00:55:32;;;;;;;4.47;3.77;;;;;;;6.76;82.52;99905.33;1718599;82;21197;-60
2021/04/19 00:57:59;;;;;;;3.95;3.65;;;;;;;6.77;82.52;99905.62;1718903;82;21234;-60
2021/04/19 01:00:33;;;;;;;3.90;3.55;;;;;;;6.74;82.59;99903.92;1695294;83;21190;-60
2021/04/19 01:03:02;;;;;;;4.00;3.60;;;;;;;6.72;82.68;99899.30;1733968;82;21026;-61
2021/04/19 01:05:37;;;;;;;3.92;3.62;;;;;;;6.70;82.70;99895.53;1719283;82;21185;-60
2021/04/19 01:08:07;;;;;;;5.33;4.83;;;;;;;6.68;82.72;99901.61;1728188;82;21008;-61
2021/04/19 01:10:36;;;;;;;4.90;4.42;;;;;;;6.69;82.83;99891.22;1746469;82;21181;-60
2021/04/19 01:13:04;;;;;;;5.33;4.62;;;;;;;6.76;82.92;99889.83;1744959;82;21168;-62
2021/04/19 01:15:33;;;;;;;5.80;4.62;;;;;;;6.83;82.74;99892.73;1719282;82;21168;-60
2021/04/19 01:18:01;;;;;;;6.03;3.98;;;;;;;6.88;82.55;99896.90;1723254;83;21585;-60
2021/04/19 01:20:33;;;;;;;3.60;3.25;;;;;;;6.89;82.32;99887.84;1734969;82;21192;-63
2021/04/19 01:23:01;;;;;;;4.62;3.67;;;;;;;6.88;82.25;99888.88;1736444;82;21146;-64
2021/04/19 01:25:29;;;;;;;4.72;4.33;;;;;;;6.85;82.29;99896.02;1721780;83;23268;-62
2021/04/19 01:27:57;;;;;;;4.95;4.05;;;;;;;6.83;82.30;99889.23;1721880;82;21100;-62
2021/04/19 01:30:32;;;;;;;4.00;3.60;;;;;;;6.83;82.38;99895.92;1694536;83;21167;-63
2021/04/19 01:33:01;;;;;;;4.90;4.12;;;;;;;6.84;82.47;99889.02;1719056;83;21127;-62
2021/04/19 01:35:29;;;;;;;4.40;4.00;;;;;;;6.89;82.37;99890.52;1718936;83;21428;-63
2021/04/19 01:37:57;;;;;;;5.30;4.80;;;;;;;6.93;82.17;99887.70;1723249;82;21209;-63
2021/04/19 01:40:27;;;;;;;4.85;3.70;;;;;;;6.94;82.06;99883.99;1727593;82;21190;-63
2021/04/19 01:42:56;;;;;;;5.22;3.98;;;;;;;6.94;81.98;99889.34;1718835;83;21614;-61
2021/04/19 01:45:24;;;;;;;4.83;4.10;;;;;;;6.91;81.89;99887.09;1718672;83;21204;-62
2021/04/19 01:47:54;;;;;;;4.22;3.85;;;;;;;6.90;81.90;99884.66;1723134;82;21607;-63
2021/04/19 01:50:25;;;;;;;4.95;4.00;;;;;;;6.91;81.93;99878.24;1718794;83;21655;-65
2021/04/19 01:52:55;;;;;;;4.97;4.47;;;;;;;6.94;81.84;99883.99;1718709;83;21059;-64
2021/04/19 01:55:25;;;;;;;4.33;3.92;;;;;;;6.99;81.67;99881.47;1725822;82;21231;-64
2021/04/19 01:57:56;;;;;;;4.12;3.72;;;;;;;7.02;81.43;99881.53;1724987;82;21131;-63
2021/04/19 02:00:27;;;;;;;4.30;3.90;;;;;;;6.99;81.23;99884.14;1704828;83;21162;-64
2021/04/19 02:03:13;;;;;;;5.50;4.58;;;;;;;6.94;81.12;99880.50;1718895;83;21353;-63
2021/04/19 02:06:13;;;;;;;4.55;3.80;;;;;;;6.88;81.22;99882.71;1718811;83;21120;-62
2021/04/19 02:09:19;;;;;;;4.92;4.42;;;;;;;6.82;81.38;99879.06;1718850;83;21143;-63
2021/04/19 02:12:08;;;;;;;4.47;4.08;;;;;;;6.78;81.54;99874.38;1720553;82;21216;-62
2021/04/19 02:15:06;;;;;;;5.40;4.40;;;;;;;6.76;81.73;99877.26;1721503;82;21173;-63
2021/04/19 02:17:43;;;;;;;4.83;4.37;;;;;;;6.76;81.79;99878.59;1737201;82;23622;-64
2021/04/19 02:20:44;;;;;;;5.47;4.62;;;;;;;6.78;81.86;99881.88;1724479;82;21229;-63
2021/04/19 02:23:34;;;;;;;6.80;5.70;;;;;;;6.76;81.98;99881.27;1708526;83;21086;-62
2021/04/19 02:26:10;;;;;;;5.78;5.17;;;;;;;6.74;82.15;99884.70;1724152;82;21229;-62
2021/04/19 02:28:53;;;;;;;6.03;5.10;;;;;;;6.72;82.48;99883.27;1723852;83;21205;-63
2021/04/19 02:31:21;;;;;;;5.85;4.70;;;;;;;6.67;82.96;99883.92;1734078;82;21468;-63
2021/04/19 02:33:50;;;;;;;5.65;4.70;;;;;;;6.60;83.81;99883.19;1712644;83;21028;-62
2021/04/19 02:36:20;;;;;;;5.60;5.00;;;;;;;6.54;84.52;99878.70;1724381;82;20980;-64
2021/04/19 02:38:52;;;;;;;6.15;5.53;;;;;;;6.51;85.06;99883.98;1724316;83;21211;-63
2021/04/19 02:41:21;;;;;;;5.75;5.10;;;;;;;6.50;85.44;99888.20;1722532;83;21151;-63
2021/04/19 02:43:49;;;;;;;6.75;5.75;;;;;;;6.47;85.66;99885.47;1724314;83;21435;-62
2021/04/19 02:46:19;;;;;;;7.12;5.22;;;;;;;6.43;85.78;99884.75;1723781;82;21173;-65
2021/04/19 02:48:47;;;;;;;6.53;5.83;;;;;;;6.37;85.99;99885.13;1724333;82;21174;-63
2021/04/19 02:51:24;;;;;;;6.42;5.75;;;;;;;6.31;86.17;99890.00;1706858;83;21179;-66
2021/04/19 02:53:52;;;;;;;6.03;4.80;;;;;;;6.29;86.36;99889.39;1724176;82;21207;-64
2021/04/19 02:56:20;;;;;;;5.42;4.92;;;;;;;6.29;86.51;99888.05;1705572;82;21389;-63
2021/04/19 02:58:55;;;;;;;5.55;5.05;;;;;;;6.28;86.78;99885.62;1735005;81;21638;-63
2021/04/19 03:01:27;;;;;;;5.65;5.03;;;;;;;6.26;86.95;99881.00;1717570;82;21608;-65
2021/04/19 03:03:59;;;;;;;6.83;5.35;;;;;;;6.22;87.24;99880.63;1719049;83;21552;-62
2021/04/19 03:06:29;;;;;;;5.55;5.05;;;;;;;6.17;87.75;99883.12;1719090;83;21582;-64
2021/04/19 03:09:01;;;;;;;6.75;5.53;;;;;;;6.17;88.53;99879.63;1717305;83;21377;-62
2021/04/19 03:11:48;;;;;;;6.42;5.83;;;;;;;6.17;89.02;99884.97;1739206;82;21173;-63
2021/04/19 03:14:16;;;;;;;6.03;5.42;;;;;;;6.19;89.58;99885.04;1746723;82;21533;-64
2021/04/19 03:16:53;;;;;;;9.93;5.80;;;;;;;6.20;89.93;99881.86;1728505;82;21169;-63
2021/04/19 03:19:25;;;;;;;5.83;5.28;;;;;;;6.18;90.07;99879.94;1723413;82;21142;-63
2021/04/19 03:21:53;;;;;;;7.12;5.97;;;;;;;6.13;90.29;99884.08;1720055;82;22057;-62
2021/04/19 03:24:23;;;;;;;7.22;5.92;;;;;;;6.12;90.62;99884.28;1718857;83;21174;-62
2021/04/19 03:27:01;;;;;;;6.47;5.40;;;;;;;6.17;90.98;99884.97;1889144;76;26718;-63
2021/04/19 03:29:31;;;;;;;5.90;5.37;;;;;;;6.13;91.35;99884.08;1858716;77;21041;-62
2021/04/19 03:32:06;;;;;;;6.72;5.83;;;;;;;6.17;91.55;99889.80;1777751;80;21217;-63
2021/04/19 03:34:36;;;;;;;6.22;5.42;;;;;;;6.21;91.58;99884.83;1781431;80;21054;-63
2021/04/19 03:37:09;;;;;;;6.28;5.67;;;;;;;6.25;91.39;99890.03;1787536;80;20979;-62
2021/04/19 03:39:38;;;;;;;7.22;5.72;;;;;;;6.26;91.14;99888.50;1731494;80;20968;-62
2021/04/19 03:42:06;;;;;;;7.05;5.28;;;;;;;6.30;90.92;99892.88;1782315;80;21059;-62
2021/04/19 03:44:38;;;;;;;5.85;5.25;;;;;;;6.34;90.74;99886.06;1796053;78;21630;-65
2021/04/19 03:47:07;;;;;;;5.15;4.10;;;;;;;6.41;90.35;99890.85;1770710;80;21191;-63
2021/04/19 03:49:43;;;;;;;5.87;4.92;;;;;;;6.45;89.84;99886.70;1800198;78;21015;-63
2021/04/19 03:52:16;;;;;;;6.55;5.15;;;;;;;6.46;89.27;99888.34;1783736;80;21150;-62
2021/04/19 03:54:50;;;;;;;5.55;4.83;;;;;;;6.43;88.84;99892.77;1787284;80;21146;-61
2021/04/19 03:57:23;;;;;;;6.12;5.53;;;;;;;6.39;88.66;99896.40;1781148;79;21193;-63
2021/04/19 03:59:57;;;;;;;5.90;4.53;;;;;;;6.37;88.78;99902.49;1762874;81;21167;-62
2021/04/19 04:02:27;;;;;;;6.75;5.65;;;;;;;6.34;88.87;99887.39;1730347;81;21617;-62
2021/04/19 04:05:07;;;;;;;4.92;4.12;;;;;;;6.35;89.12;99891.70;1782524;80;21209;-61
2021/04/19 04:07:40;;;;;;;5.00;4.50;;;;;;;6.37;89.25;99895.81;1769835;79;21194;-62
2021/04/19 04:10:10;;;;;;;5.15;4.05;;;;;;;6.37;89.18;99894.48;1760292;80;21201;-61
2021/04/19 04:12:38;;;;;;;5.10;4.67;;;;;;;6.37;88.95;99890.48;1788179;80;21216;-62
2021/04/19 04:15:10;;;;;;;4.00;3.70;;;;;;;6.39;88.70;99898.25;1788249;80;21759;-61
2021/04/19 04:17:40;;;;;;;5.25;4.75;;;;;;;6.43;88.43;99891.43;1789898;78;21016;-61
2021/04/19 04:20:18;;;;;;;6.25;5.65;;;;;;;6.48;88.17;99888.92;1844423;76;26625;-62
2021/04/19 04:22:51;;;;;;;4.92;4.45;;;;;;;6.43;88.09;99890.09;1816617;79;21070;-62
2021/04/19 04:25:21;;;;;;;5.08;4.47;;;;;;;6.42;88.14;99891.16;1817342;79;21350;-61
2021/04/19 04:27:49;;;;;;;5.70;4.60;;;;;;;6.40;88.42;99900.72;1795564;79;21995;-64
2021/04/19 04:30:18;;;;;;;5.35;4.85;;;;;;;6.42;88.62;99901.33;1754887;80;21121;-62
2021/04/19 04:32:51;;;;;;;6.10;5.28;;;;;;;6.45;88.67;99908.07;1771319;80;21216;-61
2021/04/19 04:35:20;;;;;;;5.65;5.05;;;;;;;6.49;88.75;99899.41;1784729;80;21072;-60
2021/04/19 04:37:50;;;;;;;7.12;4.65;;;;;;;6.54;88.78;99898.75;1783198;79;21567;-62
2021/04/19 04:40:20;;;;;;;5.87;4.92;;;;;;;6.54;88.89;99896.90;1783368;80;20955;-61
2021/04/19 04:42:48;;;;;;;5.00;4.53;;;;;;;6.56;89.04;99892.16;1784903;80;21519;-63
2021/04/19 04:45:17;;;;;;;7.75;4.80;;;;;;;6.62;89.17;99895.00;1784917;80;21242;-61
2021/04/19 04:48:07;;;;;;;5.30;4.80;;;;;;;6.72;89.33;99886.76;1807367;79;21141;-61
2021/04/19 04:50:45;;;;;;;4.87;4.20;;;;;;;6.82;89.26;99890.27;1785059;79;22308;-63
2021/04/19 04:53:19;;;;;;;4.72;4.30;;;;;;;6.88;89.01;99884.87;1800481;79;21185;-60
2021/04/19 04:55:47;;;;;;;4.42;4.03;;;;;;;6.91;88.83;99888.94;1817041;78;21098;-62
2021/04/19 04:58:15;;;;;;;4.45;3.65;;;;;;;6.92;88.80;99884.72;1804337;79;21109;-62
2021/04/19 05:00:44;;;;;;;4.15;3.60;;;;;;;6.95;88.71;99885.60;1785850;79;21122;-61
2021/04/19 05:03:14;;;;;;;3.35;3.05;;;;;;;7.04;88.69;99886.67;1784927;80;21933;-62
2021/04/19 05:05:42;;;;;;;4.03;3.60;;;;;;;7.14;88.52;99880.29;1755148;80;21204;-61
2021/04/19 05:08:15;;;;;;;4.70;4.15;;;;;;;7.23;87.93;99881.63;1715302;80;21590;-61
2021/04/19 05:10:43;;;;;;;5.00;4.50;;;;;;;7.30;87.63;99881.83;1798394;79;21567;-63
2021/04/19 05:13:13;;;;;;;6.03;3.62;;;;;;;7.35;87.32;99880.64;1816952;79;21177;-62
2021/04/19 05:15:43;;;;;;;3.87;3.47;;;;;;;7.38;86.48;99873.52;1816984;78;23846;-62
2021/04/19 05:18:14;;;;;;;4.28;3.87;;;;;;;7.41;86.27;99870.91;1807530;79;21078;-61
2021/04/19 05:20:43;;;;;;;3.77;3.47;;;;;;;7.52;86.10;99874.69;1784852;80;21259;-61
2021/04/19 05:23:12;;;;;;;4.25;3.60;;;;;;;7.61;85.50;99874.67;1784768;80;22183;-63
2021/04/19 05:25:42;;;;;;;3.55;3.20;;;;;;;7.68;85.29;99866.02;1785081;79;21174;-62
2021/04/19 05:28:10;;;;;;;3.40;3.10;;;;;;;7.75;83.92;99868.09;1795314;79;21344;-65
2021/04/19 05:30:38;;;;;;;3.60;3.30;;;;;;;7.85;83.94;99875.06;1816701;79;21133;-64
2021/04/19 05:33:06;;;;;;;3.85;3.55;;;;;;;7.92;83.21;99875.77;1816454;79;21142;-62
2021/04/19 05:35:35;;;;;;;4.70;4.30;;;;;;;8.00;82.64;99874.13;1816477;79;21137;-65
2021/04/19 05:38:04;;;;;;;4.05;3.55;;;;;;;8.09;82.76;99880.79;1808472;79;21630;-63
2021/04/19 05:40:34;;;;;;;4.45;4.05;;;;;;;8.20;82.64;99879.19;1784283;80;21329;-61
2021/04/19 05:43:04;;;;;;;4.30;3.60;;;;;;;8.27;82.55;99878.55;1784289;79;21606;-61
2021/04/19 05:45:33;;;;;;;4.25;3.85;;;;;;;8.31;82.18;99879.75;1784462;80;21063;-62
2021/04/19 05:48:01;;;;;;;4.90;4.40;;;;;;;8.34;82.21;99870.45;1759655;79;21153;-65
2021/04/19 05:50:31;;;;;;;5.05;4.25;;;;;;;8.41;82.25;99876.50;1786963;79;21313;-63
2021/04/19 05:53:00;;;;;;;5.00;4.50;;;;;;;8.50;82.21;99868.41;1793024;79;21149;-62
2021/04/19 05:55:29;;;;;;;5.20;4.67;;;;;;;8.61;82.03;99872.97;1816406;79;21105;-64
2021/04/19 05:58:27;;;;;;;8.05;5.40;;;;;;;8.70;81.57;99872.39;1777349;79;21528;-65
2021/04/19 06:01:07;;;;;;;7.58;6.08;;;;;;;8.78;81.19;99875.23;1784212;80;21132;-67
2021/04/19 06:03:52;;;;;;;5.42;4.22;;;;;;;8.85;80.87;99873.27;1784492;80;21129;-64
2021/04/19 06:06:49;;;;;;;4.10;3.70;;;;;;;8.90;80.68;99872.05;1788555;79;21406;-64
2021/04/19 06:09:23;;;;;;;4.20;3.80;;;;;;;8.95;80.00;99863.29;1782554;79;21102;-64
2021/04/19 06:12:01;;;;;;;3.65;3.35;;;;;;;8.98;79.66;99862.81;1786254;79;21121;-69
2021/04/19 06:14:33;;;;;;;4.83;4.42;;;;;;;9.05;79.44;99864.86;1809407;79;21035;-63
2021/04/19 06:17:02;;;;;;;7.87;4.75;;;;;;;9.17;79.26;99866.98;1816535;79;21586;-65
2021/04/19 06:19:31;;;;;;;5.62;4.72;;;;;;;9.28;78.73;99863.47;1821726;78;22257;-62
2021/04/19 06:21:59;;;;;;;4.97;4.12;;;;;;;9.40;78.27;99868.27;1821853;78;21157;-64
2021/04/19 06:24:26;;;;;;;3.37;3.08;;;;;;;9.51;77.61;99867.95;1760359;81;21124;-63
2021/04/19 06:26:54;;;;;;;4.53;4.03;;;;;;;9.57;76.45;99866.48;1780602;79;21153;-61
2021/04/19 06:29:30;;;;;;;5.05;4.20;;;;;;;9.60;76.32;99862.48;1731260;81;21212;-62
2021/04/19 06:31:58;;;;;;;5.20;4.53;;;;;;;9.65;76.10;99863.94;1779936;80;22052;-61
2021/04/19 06:34:26;;;;;;;8.18;5.45;;;;;;;9.69;75.81;99864.29;1761384;81;21573;-61
2021/04/19 06:36:54;;;;;;;5.62;4.60;;;;;;;9.71;75.61;99865.66;1779799;80;21149;-62
2021/04/19 06:39:22;;;;;;;9.08;5.40;;;;;;;9.74;75.25;99871.07;1781112;80;21037;-63
2021/04/19 06:41:50;;;;;;;9.55;6.03;;;;;;;9.74;75.07;99874.58;1792251;80;21112;-63
2021/04/19 06:44:17;;;;;;;9.40;7.30;;;;;;;9.78;75.26;99862.33;1779917;80;21368;-65
2021/04/19 06:46:45;;;;;;;11.93;8.83;;;;;;;9.85;75.71;99858.13;1761279;81;21203;-63
2021/04/19 06:49:13;;;;;;;11.00;8.28;;;;;;;9.93;75.97;99854.52;1780665;79;21109;-64
2021/04/19 06:51:43;;;;;;;9.63;6.08;;;;;;;10.01;76.21;99869.45;1731382;81;21597;-64
2021/04/19 06:54:12;;;;;;;8.45;7.58;;;;;;;10.08;75.85;99864.20;1797466;79;21185;-63
2021/04/19 06:56:42;;;;;;;10.63;7.50;;;;;;;10.12;75.72;99865.86;1792574;80;21380;-66
2021/04/19 06:59:12;;;;;;;10.15;7.30;;;;;;;10.14;75.49;99864.28;1794891;79;21248;-62
2021/04/19 07:01:39;;;;;;;12.70;7.25;;;;;;;10.16;75.53;99860.34;1730363;81;21884;-62
2021/04/19 07:04:14;;;;;;;8.08;7.28;;;;;;;10.21;75.60;99858.27;1779800;80;21114;-63
2021/04/19 07:06:42;;;;;;;7.87;6.50;;;;;;;10.27;75.63;99859.97;1735778;81;21179;-62
2021/04/19 07:09:30;;;;;;;8.48;6.67;;;;;;;10.34;75.60;99864.14;1779802;80;21361;-61
2021/04/19 07:12:05;;;;;;;8.35;6.70;;;;;;;10.41;75.29;99866.13;1768302;80;21119;-63
2021/04/19 07:14:34;;;;;;;10.18;6.47;;;;;;;10.43;74.37;99863.20;1792669;80;21061;-64
2021/04/19 07:17:06;;;;;;;9.95;8.08;;;;;;;10.42;74.03;99862.38;1741773;80;20989;-64
2021/04/19 07:19:34;;;;;;;13.00;9.40;;;;;;;10.39;74.00;99870.95;1782836;80;21145;-62
2021/04/19 07:22:05;;;;;;;7.30;6.42;;;;;;;10.43;73.92;99863.20;1757086;80;21918;-62
2021/04/19 07:24:35;;;;;;;7.97;6.00;;;;;;;10.46;72.34;99861.36;1780652;80;21350;-63
2021/04/19 07:27:05;;;;;;;8.23;7.42;;;;;;;10.46;72.22;99864.86;1780595;80;21176;-62
2021/04/19 07:29:34;;;;;;;8.23;7.42;;;;;;;10.45;72.50;99860.54;1780426;80;21005;-62
2021/04/19 07:32:02;;;;;;;7.50;6.78;;;;;;;10.48;72.11;99855.22;1773685;80;21172;-63
2021/04/19 07:34:31;;;;;;;7.65;6.78;;;;;;;10.52;71.50;99854.19;1749938;80;21479;-62
2021/04/19 07:37:02;;;;;;;8.13;6.87;;;;;;;10.57;71.15;99851.05;1774843;80;21569;-64
2021/04/19 07:39:33;;;;;;;10.60;6.92;;;;;;;10.64;70.71;99842.83;1765493;80;21030;-61
2021/04/19 07:42:08;;;;;;;11.35;6.37;;;;;;;10.72;69.78;99840.52;1757959;80;21061;-64
2021/04/19 07:44:46;;;;;;;7.75;6.45;;;;;;;10.79;69.51;99841.15;1775847;80;21703;-63
2021/04/19 07:50:20;;;;;;;7.47;6.78;;;;;;;10.91;68.98;99837.84;1846977;75;22844;-65
2021/04/19 07:53:04;;;;;;;9.95;6.37;;;;;;;10.86;68.86;99847.19;1816459;79;20960;-62
2021/04/19 07:55:35;;;;;;;26.45;7.28;;;;;;;10.88;68.29;99846.42;1817219;79;21351;-65
2021/04/19 07:58:22;;;;;;;9.73;6.83;;;;;;;10.89;68.46;99852.59;1817119;79;20979;-65
2021/04/19 08:00:51;;;;;;;8.05;5.80;;;;;;;10.93;68.84;99845.67;1807789;79;21278;-63
2021/04/19 08:03:19;;;;;;;6.92;6.28;;;;;;;10.96;68.53;99848.39;1807951;79;21551;-64
2021/04/19 08:05:52;;;;;;;6.78;5.78;;;;;;;10.98;68.52;99840.89;1817194;79;21030;-62
2021/04/19 08:08:36;;;;;;;7.08;5.22;;;;;;;11.02;67.48;99844.71;1796798;78;21186;-63
2021/04/19 08:11:13;;;;;;;13.65;8.50;;;;;;;11.11;66.76;99835.14;1755996;80;20994;-64
2021/04/19 08:13:42;;;;;;;9.10;7.72;;;;;;;11.22;67.40;99843.63;1758311;80;21583;-63
2021/04/19 08:16:23;;;;;;;7.30;6.60;;;;;;;11.22;67.96;99837.69;1753912;81;21593;-64
2021/04/19 08:19:05;;;;;;;8.45;7.28;;;;;;;11.25;67.77;99836.39;1769123;80;21102;-63
2021/04/19 08:21:35;;;;;;;8.93;8.00;;;;;;;11.24;67.42;99835.58;1734750;80;21366;-62
2021/04/19 08:24:13;;;;;;;8.25;7.45;;;;;;;11.22;67.54;99836.34;1753807;81;21287;-64
2021/04/19 08:26:55;;;;;;;8.35;7.03;;;;;;;11.18;67.55;99836.56;1754006;81;21585;-63
2021/04/19 08:32:21;;;;;;;6.72;6.12;;;;;;;11.17;67.57;99823.38;1869317;76;27705;-63
2021/04/19 08:34:50;;;;;;;12.23;7.15;;;;;;;11.16;66.99;99833.33;1784060;80;20975;-64
2021/04/19 08:37:21;;;;;;;11.08;6.87;;;;;;;11.25;66.85;99829.66;1816084;79;21352;-63
2021/04/19 08:39:49;;;;;;;10.05;7.12;;;;;;;11.32;66.66;99819.50;1788643;80;21627;-62
2021/04/19 08:42:18;;;;;;;7.53;6.72;;;;;;;11.41;66.04;99823.93;1783816;80;21027;-62
2021/04/19 08:44:47;;;;;;;6.60;6.00;;;;;;;11.49;65.67;99824.30;1811778;79;20980;-66
2021/04/19 08:47:18;;;;;;;7.87;5.05;;;;;;;11.58;64.79;99821.43;1784021;80;21556;-63
2021/04/19 08:49:45;;;;;;;6.08;5.53;;;;;;;11.64;64.04;99823.65;1783898;80;21383;-62
2021/04/19 08:52:15;;;;;;;6.78;5.45;;;;;;;11.64;63.30;99822.30;1786892;80;21030;-66
2021/04/19 08:54:45;;;;;;;6.85;6.12;;;;;;;11.65;62.73;99823.41;1783863;80;21031;-67
2021/04/19 08:57:13;;;;;;;10.43;5.72;;;;;;;11.64;62.50;99823.12;1812955;79;21622;-62
2021/04/19 08:59:45;;;;;;;8.23;6.47;;;;;;;11.66;62.33;99825.53;1811751;79;21173;-63
2021/04/19 09:02:15;;;;;;;5.50;5.00;;;;;;;11.65;62.08;99826.63;1778906;80;21375;-65
2021/04/19 09:05:05;;;;;;;7.95;6.15;;;;;;;11.64;62.48;99827.69;1762685;81;21155;-65
2021/04/19 09:07:35;;;;;;;5.30;4.75;;;;;;;11.62;60.73;99829.81;1744661;81;21199;-65
2021/04/19 09:10:06;;;;;;;8.05;5.67;;;;;;;11.61;60.13;99828.17;1745265;80;21016;-67
2021/04/19 09:12:34;;;;;;;5.97;5.22;;;;;;;11.59;59.84;99828.45;1762600;80;21134;-64
2021/04/19 09:15:26;;;;;;;6.55;5.85;;;;;;;11.61;60.15;99828.99;1762818;80;21354;-63
2021/04/19 09:18:09;;;;;;;12.80;9.35;;;;;;;11.61;60.57;99827.64;1762842;81;21633;-64
2021/04/19 09:20:51;;;;;;;6.00;5.50;;;;;;;11.65;60.88;99822.59;1762831;80;21640;-62
2021/04/19 09:23:33;;;;;;;10.20;9.15;;;;;;;11.72;60.37;99819.99;1763637;80;21142;-65
2021/04/19 09:26:01;;;;;;;6.35;5.75;;;;;;;11.83;59.29;99817.41;1762707;80;21162;-64
2021/04/19 09:28:44;;;;;;;6.12;5.53;;;;;;;11.94;59.01;99812.40;1762176;80;21398;-62
2021/04/19 09:31:13;;;;;;;5.87;5.15;;;;;;;12.02;58.23;99812.73;1759562;80;21168;-62
2021/04/19 09:33:40;;;;;;;7.12;5.67;;;;;;;12.05;58.36;99818.14;1769054;80;21150;-65
2021/04/19 09:36:09;;;;;;;11.80;5.53;;;;;;;12.07;58.11;99818.17;1733835;81;21130;-64
2021/04/19 09:38:48;;;;;;;5.03;4.50;;;;;;;12.15;57.97;99812.30;1776473;80;21192;-65
2021/04/19 09:41:13;;;;;;;5.33;4.87;;;;;;;12.20;56.52;99811.00;1755893;80;21194;-66
2021/04/19 09:43:47;;;;;;;7.35;4.42;;;;;;;12.29;55.93;99815.91;1775908;79;21190;-65
2021/04/19 09:46:25;;;;;;;6.10;5.20;;;;;;;12.42;56.18;99804.70;1772953;79;21063;-67
2021/04/19 09:49:02;;;;;;;7.17;6.47;;;;;;;12.61;55.72;99810.75;1780874;79;20992;-64
2021/04/19 09:51:38;;;;;;;5.78;5.03;;;;;;;12.79;54.95;99810.87;1762052;81;21577;-64
2021/04/19 09:54:22;;;;;;;6.03;5.42;;;;;;;12.86;54.56;99818.19;1762413;80;22337;-68
2021/04/19 09:56:55;;;;;;;;;;;;;;;12.92;55.41;99820.38;1765654;80;21593;-64
2021/04/19 09:59:27;;;;;;;7.83;4.90;;;;;;;12.86;54.62;99813.33;1745175;80;20230;-64
2021/04/19 10:01:58;;;;;;;9.73;5.17;;;;;;;12.80;54.49;99813.86;1772171;80;21138;-64
2021/04/19 10:04:26;;;;;;;5.05;4.62;;;;;;;12.72;54.05;99813.52;1783113;80;21111;-66
2021/04/19 10:07:01;;;;;;;5.33;4.83;;;;;;;12.65;53.80;99817.28;1777770;80;21628;-67
2021/04/19 10:09:29;;;;;;;7.35;6.72;;;;;;;12.71;54.32;99814.05;1761829;81;21111;-65
2021/04/19 10:12:05;;;;;;;7.10;6.08;;;;;;;12.74;54.87;99810.84;1763365;80;21020;-66
2021/04/19 10:14:37;;;;;;;4.58;4.17;;;;;;;12.84;53.96;99809.56;1761904;81;21163;-66
2021/04/19 10:17:18;;;;;;;6.78;4.67;;;;;;;13.02;52.59;99814.51;1838433;76;22795;-66
2021/04/19 10:19:47;;;;;;;5.12;4.50;;;;;;;13.03;51.58;99815.33;1793522;79;21180;-66
2021/04/19 10:22:17;;;;;;;6.37;4.15;;;;;;;13.06;51.14;99814.79;1796473;79;21203;-67
2021/04/19 10:24:57;;;;;;;7.47;4.17;;;;;;;13.08;50.68;99820.75;1772765;80;21055;-67
2021/04/19 10:27:31;;;;;;;10.63;4.90;;;;;;;13.06;50.50;99813.44;1808131;79;21127;-68
2021/04/19 10:30:15;;;;;;;6.47;4.17;;;;;;;13.08;51.02;99820.22;1816632;79;20999;-65
2021/04/19 10:32:46;;;;;;;9.60;6.33;;;;;;;13.11;51.68;99810.80;1803094;79;21574;-69
2021/04/19 10:35:39;;;;;;;7.55;6.78;;;;;;;13.11;52.70;99821.59;1784673;80;21201;-68
2021/04/19 10:38:09;;;;;;;6.75;5.70;;;;;;;13.10;53.55;99815.88;1783307;80;21634;-68
2021/04/19 10:40:38;;;;;;;5.92;5.35;;;;;;;13.10;53.05;99817.23;1784760;80;21014;-67
2021/04/19 10:43:12;;;;;;;8.28;6.92;;;;;;;13.07;52.30;99820.47;1784786;80;21145;-65
2021/04/19 10:45:42;;;;;;;5.25;4.58;;;;;;;13.02;51.94;99817.74;1784832;80;21158;-65
2021/04/19 10:48:24;;;;;;;6.47;5.97;;;;;;;12.94;51.49;99820.42;1784664;80;22141;-67
2021/04/19 10:50:56;;;;;;;14.85;9.60;;;;;;;12.90;51.96;99828.73;1784874;80;21212;-69
2021/04/19 10:53:37;;;;;;;7.35;6.58;;;;;;;12.94;52.26;99823.12;1784853;80;21555;-63
2021/04/19 10:56:08;;;;;;;5.75;5.12;;;;;;;13.02;52.42;99819.09;1790060;79;21141;-65
2021/04/19 10:58:38;;;;;;;5.20;4.70;;;;;;;13.20;51.73;99817.31;1816862;79;21189;-65
2021/04/19 11:01:07;;;;;;;7.65;4.75;;;;;;;13.35;51.31;99821.43;1808778;79;22218;-68
2021/04/19 11:03:37;;;;;;;9.35;4.92;;;;;;;13.49;49.94;99821.73;1819981;77;21107;-65
2021/04/19 11:06:11;;;;;;;6.95;5.47;;;;;;;13.54;50.26;99819.05;1798778;79;21170;-64
2021/04/19 11:08:53;;;;;;;6.08;4.75;;;;;;;13.50;51.04;99821.48;1748007;82;21659;-64
2021/04/19 11:11:29;;;;;;;4.53;4.03;;;;;;;13.43;51.89;99824.14;1763581;80;21161;-68
2021/04/19 11:14:15;;;;;;;5.00;4.50;;;;;;;13.36;51.35;99819.55;1785063;80;21304;-65
2021/04/19 11:16:59;;;;;;;6.33;4.62;;;;;;;13.27;50.87;99822.48;1784864;79;21142;-66
2021/04/19 11:19:44;;;;;;;;;;;;;;;13.21;51.65;99819.48;1787503;80;21156;-64
2021/04/19 11:22:34;;;;;;;5.30;4.80;;;;;;;13.21;52.26;99818.13;1756004;80;20425;-66
2021/04/19 11:25:23;;;;;;;6.90;4.78;;;;;;;13.16;52.43;99820.27;1780574;80;21177;-63
2021/04/19 11:27:54;;;;;;;14.25;5.55;;;;;;;13.06;52.88;99818.30;1762264;80;22328;-66
2021/04/19 11:30:26;;;;;;;8.20;5.90;;;;;;;13.02;53.86;99820.44;1743094;80;21177;-68
2021/04/19 11:33:14;;;;;;;8.53;5.42;;;;;;;13.02;54.21;99819.91;1784309;80;21137;-66
2021/04/19 11:35:45;;;;;;;7.03;6.08;;;;;;;13.00;54.95;99813.95;1784314;80;21042;-63
2021/04/19 11:38:22;;;;;;;6.12;5.50;;;;;;;13.05;54.46;99813.97;1777780;80;21120;-66
2021/04/19 11:40:50;;;;;;;8.53;4.95;;;;;;;13.05;54.22;99815.86;1772113;80;22111;-65
2021/04/19 11:43:22;;;;;;;6.80;6.03;;;;;;;13.04;53.74;99812.34;1784169;80;21411;-65
2021/04/19 11:46:00;;;;;;;5.55;5.03;;;;;;;13.06;52.96;99818.30;1784390;80;21109;-66
2021/04/19 11:48:29;;;;;;;5.37;4.62;;;;;;;13.06;52.62;99812.91;1771504;80;21199;-65
2021/04/19 11:50:58;;;;;;;7.75;5.80;;;;;;;13.12;52.12;99805.67;1756010;81;21601;-67
2021/04/19 11:53:28;;;;;;;6.15;4.95;;;;;;;13.21;52.24;99808.67;1778317;80;22271;-67
2021/04/19 11:55:57;;;;;;;7.45;4.37;;;;;;;13.31;52.27;99806.02;1784208;80;21638;-66
2021/04/19 11:58:27;;;;;;;6.15;4.78;;;;;;;13.38;51.06;99802.55;1782456;80;20983;-68
2021/04/19 12:00:55;;;;;;;4.45;4.05;;;;;;;13.42;49.59;99795.53;1758554;80;21180;-64
2021/04/19 12:03:23;;;;;;;6.53;5.87;;;;;;;13.43;49.85;99791.19;1726384;81;21546;-64
2021/04/19 12:05:51;;;;;;;7.45;5.50;;;;;;;13.59;50.59;99792.05;1755959;81;23630;-64
2021/04/19 12:08:18;;;;;;;6.60;5.90;;;;;;;13.65;52.14;99793.69;1756106;80;21180;-60
2021/04/19 12:10:47;;;;;;;5.72;5.10;;;;;;;13.74;52.62;99797.48;1756051;81;21112;-65